createdAt,value
2017-03-16T00:00:41.639Z,6.05
2017-03-16T00:03:35.040Z,6.17
2017-03-16T00:09:21.496Z,6.20
2017-03-16T00:12:14.827Z,6.13
2017-03-16T00:15:07.965Z,6.08
2017-03-16T00:20:54.284Z,5.91
2017-03-16T00:23:47.492Z,5.88
2017-03-16T00:26:40.709Z,5.87
2017-03-16T00:29:33.949Z,5.83
2017-03-16T00:32:27.168Z,5.77
2017-03-16T00:35:20.263Z,5.71
2017-03-16T00:38:13.263Z,5.63
2017-03-16T00:41:06.342Z,5.58
2017-03-16T00:44:00.659Z,5.52
2017-03-16T00:46:52.887Z,5.42
2017-03-16T00:55:32.776Z,5.21
2017-03-16T00:58:25.965Z,5.22
2017-03-16T01:01:19.076Z,5.19
2017-03-16T01:04:12.228Z,5.23
2017-03-16T01:07:05.440Z,5.22
2017-03-16T01:09:58.550Z,5.20
2017-03-16T01:12:51.761Z,5.24
2017-03-16T01:18:38.230Z,5.28
2017-03-16T01:21:31.378Z,5.31
2017-03-16T01:27:17.919Z,5.24
2017-03-16T01:30:11.158Z,5.16
2017-03-16T01:33:04.273Z,5.08
2017-03-16T01:35:57.466Z,5.06
2017-03-16T01:38:50.762Z,5.06
2017-03-16T01:44:37.296Z,5.05
2017-03-16T01:47:30.449Z,5.02
2017-03-16T01:53:16.660Z,4.98
2017-03-16T01:56:09.802Z,4.96
2017-03-16T01:59:03.050Z,4.98
2017-03-16T02:01:56.290Z,5.02
2017-03-16T02:04:49.498Z,5.06
2017-03-16T02:07:42.568Z,5.15
2017-03-16T02:10:35.658Z,5.23
2017-03-16T02:13:29.424Z,5.31
2017-03-16T02:19:15.599Z,5.48
2017-03-16T02:22:08.958Z,5.58
2017-03-16T02:25:01.993Z,5.68
2017-03-16T02:30:48.493Z,5.85
2017-03-16T02:39:28.359Z,6.13
2017-03-16T02:42:21.685Z,6.20
2017-03-16T02:45:14.776Z,6.27
2017-03-16T02:48:07.960Z,6.32
2017-03-16T02:51:01.181Z,6.34
2017-03-16T02:53:54.356Z,6.37
2017-03-16T02:56:47.489Z,6.38
2017-03-16T03:02:33.956Z,6.41
2017-03-16T03:05:27.149Z,6.44
2017-03-16T03:08:21.433Z,6.42
2017-03-16T03:11:13.679Z,6.34
2017-03-16T03:19:53.046Z,6.06
2017-03-16T03:22:46.059Z,5.99
2017-03-16T03:25:39.138Z,5.91
2017-03-16T03:28:32.173Z,5.81
2017-03-16T03:31:25.203Z,5.72
2017-03-16T03:37:11.410Z,5.61
2017-03-16T03:40:04.396Z,5.54
2017-03-16T03:42:57.876Z,5.48
2017-03-16T03:45:50.926Z,5.48
2017-03-16T03:48:43.998Z,5.51
2017-03-16T03:51:37.070Z,5.57
2017-03-16T03:57:23.271Z,5.59
2017-03-16T04:00:16.167Z,5.55
2017-03-16T04:03:09.127Z,5.53
2017-03-16T04:08:55.221Z,5.42
2017-03-16T04:11:48.176Z,5.38
2017-03-16T04:17:34.359Z,5.22
2017-03-16T04:20:27.484Z,5.18
2017-03-16T04:23:20.469Z,5.13
2017-03-16T04:26:13.458Z,5.09
2017-03-16T04:29:06.346Z,5.05
2017-03-16T04:31:59.434Z,4.99
2017-03-16T04:34:52.457Z,4.95
2017-03-16T04:43:31.265Z,4.88
2017-03-16T04:46:24.147Z,4.83
2017-03-16T04:49:17.198Z,4.80
2017-03-16T04:55:03.093Z,4.73
2017-03-16T04:57:56.608Z,4.71
2017-03-16T05:03:42.814Z,4.65
2017-03-16T05:12:21.869Z,4.65
2017-03-16T05:15:14.902Z,4.60
2017-03-16T05:18:07.843Z,4.59
2017-03-16T05:21:00.969Z,4.58
2017-03-16T05:23:53.905Z,4.58
2017-03-16T05:26:47.070Z,4.57
2017-03-16T05:29:40.158Z,4.57
2017-03-16T05:32:33.383Z,4.61
2017-03-16T05:35:26.573Z,4.72
2017-03-16T05:38:19.657Z,4.83
2017-03-16T05:41:12.911Z,4.93
2017-03-16T05:44:06.285Z,5.03
2017-03-16T05:46:59.407Z,5.15
2017-03-16T05:49:52.643Z,5.28
2017-03-16T05:52:46.382Z,5.36
2017-03-16T05:55:39.437Z,5.42
2017-03-16T05:58:32.713Z,5.57
2017-03-16T06:01:25.981Z,5.79
2017-03-16T06:04:19.290Z,5.99
2017-03-16T06:07:12.633Z,6.19
2017-03-16T06:12:59.243Z,6.53
2017-03-16T06:15:52.542Z,6.59
2017-03-16T06:18:45.810Z,6.58
2017-03-16T06:21:39.344Z,6.61
2017-03-16T06:24:32.653Z,6.74
2017-03-16T06:30:19.576Z,6.95
2017-03-16T06:36:05.926Z,6.78
2017-03-16T06:41:52.504Z,6.86
2017-03-16T06:47:39.476Z,7.57
2017-03-16T06:50:32.874Z,7.97
2017-03-16T06:53:26.379Z,8.27
2017-03-16T06:56:19.817Z,8.60
2017-03-16T06:59:13.443Z,9.34
2017-03-16T07:02:07.061Z,9.88
2017-03-16T07:05:00.735Z,10.22
2017-03-16T07:07:54.131Z,10.42
2017-03-16T07:13:41.581Z,10.61
2017-03-16T07:16:35.431Z,10.64
2017-03-16T07:19:29.059Z,10.45
2017-03-16T07:22:22.781Z,10.75
2017-03-16T07:25:16.754Z,11.39
2017-03-16T07:33:58.537Z,11.89
2017-03-16T07:36:52.501Z,11.93
2017-03-16T07:39:46.334Z,11.77
2017-03-16T07:42:40.006Z,11.95
2017-03-16T07:48:28.105Z,12.36
2017-03-16T07:51:22.034Z,12.91
2017-03-16T07:54:16.105Z,13.24
2017-03-16T07:57:10.140Z,13.38
2017-03-16T08:00:04.323Z,13.43
2017-03-16T08:02:58.167Z,13.19
2017-03-16T08:08:45.600Z,12.61
2017-03-16T08:11:39.340Z,12.49
2017-03-16T08:17:26.932Z,12.29
2017-03-16T08:23:14.465Z,11.89
2017-03-16T08:26:08.293Z,12.01
2017-03-16T08:29:02.859Z,12.90
2017-03-16T08:34:51.068Z,13.81
2017-03-16T08:37:45.021Z,14.04
2017-03-16T08:40:39.119Z,14.93
2017-03-16T08:43:33.489Z,15.50
2017-03-16T08:46:27.774Z,15.92
2017-03-16T08:52:16.861Z,18.28
2017-03-16T08:55:11.196Z,18.72
2017-03-16T08:58:05.181Z,19.30
2017-03-16T09:00:59.312Z,19.34
2017-03-16T09:03:53.403Z,19.36
2017-03-16T09:06:47.485Z,20.14
2017-03-16T09:09:42.105Z,21.88
2017-03-16T09:12:36.715Z,22.77
2017-03-16T09:15:30.860Z,22.01
2017-03-16T09:18:24.619Z,20.77
2017-03-16T09:21:18.897Z,21.49
2017-03-16T09:24:13.705Z,22.67
2017-03-16T09:27:08.211Z,23.98
2017-03-16T09:30:02.661Z,24.63
2017-03-16T09:32:56.908Z,24.44
2017-03-16T09:35:51.013Z,23.93
2017-03-16T09:38:44.894Z,22.80
2017-03-16T09:41:38.677Z,21.82
2017-03-16T09:44:32.451Z,20.63
2017-03-16T09:47:26.250Z,20.04
2017-03-16T09:50:20.186Z,20.03
2017-03-16T09:53:14.129Z,20.00
2017-03-16T09:56:07.862Z,19.11
2017-03-16T09:59:02.056Z,19.52
2017-03-16T10:01:56.499Z,20.36
2017-03-16T10:04:50.836Z,21.21
2017-03-16T10:07:45.179Z,21.17
2017-03-16T10:10:39.175Z,21.13
2017-03-16T10:13:33.212Z,21.24
2017-03-16T10:16:27.103Z,20.53
2017-03-16T10:19:20.981Z,20.24
2017-03-16T10:22:14.869Z,19.74
2017-03-16T10:25:08.904Z,19.20
2017-03-16T10:28:02.912Z,18.71
2017-03-16T10:30:57.019Z,18.33
2017-03-16T10:36:45.193Z,17.94
2017-03-16T10:39:39.363Z,17.84
2017-03-16T10:42:33.361Z,17.74
2017-03-16T10:45:27.304Z,17.83
2017-03-16T10:48:21.300Z,17.88
2017-03-16T10:54:09.227Z,17.82
2017-03-16T10:57:03.080Z,17.44
2017-03-16T10:59:57.185Z,17.30
2017-03-16T11:02:50.941Z,17.39
2017-03-16T11:05:44.862Z,17.32
2017-03-16T11:08:38.751Z,17.21
2017-03-16T11:11:32.617Z,16.94
2017-03-16T11:14:26.580Z,16.93
2017-03-16T11:17:20.517Z,17.04
2017-03-16T11:20:14.472Z,17.22
2017-03-16T11:23:08.448Z,17.35
2017-03-16T11:26:02.403Z,17.35
2017-03-16T11:28:56.184Z,17.02
2017-03-16T11:31:50.076Z,16.56
2017-03-16T11:34:43.863Z,16.58
2017-03-16T11:37:37.761Z,16.77
2017-03-16T11:40:31.816Z,16.83
2017-03-16T11:43:25.569Z,16.66
2017-03-16T11:46:19.382Z,16.61
2017-03-16T11:49:13.050Z,16.55
2017-03-16T11:52:06.678Z,16.52
2017-03-16T11:55:00.316Z,16.42
2017-03-16T11:57:54.051Z,16.39
2017-03-16T12:00:47.732Z,16.32
2017-03-16T12:03:41.430Z,16.27
2017-03-16T12:06:35.131Z,16.25
2017-03-16T12:09:28.825Z,16.22
2017-03-16T12:12:22.566Z,16.24
2017-03-16T12:15:16.292Z,16.12
2017-03-16T12:18:09.989Z,16.02
2017-03-16T12:21:03.652Z,16.10
2017-03-16T12:23:57.401Z,15.95
2017-03-16T12:26:51.120Z,15.98
2017-03-16T12:29:44.895Z,15.86
2017-03-16T12:32:38.704Z,15.86
2017-03-16T12:35:32.572Z,15.86
2017-03-16T12:38:26.153Z,16.04
2017-03-16T12:41:20.078Z,15.98
2017-03-16T12:44:13.967Z,16.07
2017-03-16T12:47:07.783Z,16.16
2017-03-16T12:50:01.520Z,16.15
2017-03-16T12:52:55.261Z,16.04
2017-03-16T12:55:49.013Z,16.06
2017-03-16T12:58:42.701Z,16.21
2017-03-16T13:01:36.583Z,16.33
2017-03-16T13:04:30.387Z,16.35
2017-03-16T13:07:24.058Z,16.16
2017-03-16T13:10:17.895Z,16.21
2017-03-16T13:13:11.711Z,16.42
2017-03-16T13:16:05.485Z,16.70
2017-03-16T13:18:59.420Z,16.94
2017-03-16T13:21:53.191Z,16.95
2017-03-16T13:24:47.038Z,16.96
2017-03-16T13:27:40.983Z,17.10
2017-03-16T13:30:34.770Z,16.99
2017-03-16T13:33:28.490Z,16.83
2017-03-16T13:36:22.227Z,16.77
2017-03-16T13:39:16.000Z,16.75
2017-03-16T13:42:09.710Z,16.81
2017-03-16T13:45:03.485Z,16.84
2017-03-16T13:47:57.013Z,16.86
2017-03-16T13:50:50.585Z,16.72
2017-03-16T13:53:44.163Z,16.61
2017-03-16T13:56:37.852Z,16.63
2017-03-16T13:59:31.467Z,16.61
2017-03-16T14:02:25.129Z,16.59
2017-03-16T14:05:19.032Z,16.35
2017-03-16T14:08:12.660Z,16.31
2017-03-16T14:11:06.317Z,16.34
2017-03-16T14:13:59.884Z,16.33
2017-03-16T14:16:53.413Z,16.44
2017-03-16T14:19:46.885Z,16.47
2017-03-16T14:22:40.498Z,16.47
2017-03-16T14:25:33.943Z,16.40
2017-03-16T14:28:27.430Z,16.44
2017-03-16T14:31:21.008Z,16.44
2017-03-16T14:34:14.636Z,16.49
2017-03-16T14:37:08.284Z,16.52
2017-03-16T14:40:01.778Z,16.50
2017-03-16T14:42:55.303Z,16.45
2017-03-16T14:45:48.965Z,16.39
2017-03-16T14:48:42.619Z,16.26
2017-03-16T14:51:36.108Z,16.08
2017-03-16T14:54:29.569Z,16.06
2017-03-16T14:57:23.087Z,15.97
2017-03-16T15:00:16.514Z,15.95
2017-03-16T15:03:09.886Z,15.96
2017-03-16T15:06:03.340Z,15.94
2017-03-16T15:08:56.924Z,15.85
2017-03-16T15:11:50.585Z,15.80
2017-03-16T15:14:44.117Z,15.71
2017-03-16T15:17:37.598Z,15.58
2017-03-16T15:20:31.094Z,15.49
2017-03-16T15:23:24.449Z,15.47
2017-03-16T15:26:17.951Z,15.43
2017-03-16T15:29:11.238Z,15.33
2017-03-16T15:32:04.677Z,15.31
2017-03-16T15:34:58.453Z,15.26
2017-03-16T15:37:53.213Z,15.19
2017-03-16T15:40:47.939Z,15.12
2017-03-16T15:43:42.637Z,15.04
2017-03-16T15:46:37.408Z,14.99
2017-03-16T15:49:32.251Z,14.93
2017-03-16T15:52:27.034Z,14.88
2017-03-16T15:58:16.752Z,14.78
2017-03-16T16:01:11.681Z,14.76
2017-03-16T16:04:06.367Z,14.66
2017-03-16T16:07:01.223Z,14.54
2017-03-16T16:09:55.934Z,14.48
2017-03-16T16:12:50.711Z,14.44
2017-03-16T16:15:45.367Z,14.40
2017-03-16T16:18:40.080Z,14.33
2017-03-16T16:21:34.719Z,14.28
2017-03-16T16:24:29.420Z,14.19
2017-03-16T16:27:24.041Z,14.09
2017-03-16T16:30:18.905Z,13.96
2017-03-16T16:33:13.471Z,13.85
2017-03-16T16:36:08.209Z,13.73
2017-03-16T16:39:02.780Z,13.64
2017-03-16T16:41:57.572Z,13.53
2017-03-16T16:44:52.189Z,13.41
2017-03-16T16:47:46.890Z,13.28
2017-03-16T16:50:41.579Z,13.16
2017-03-16T16:53:36.177Z,13.05
2017-03-16T16:56:30.787Z,12.92
2017-03-16T16:59:25.426Z,12.78
2017-03-16T17:02:20.305Z,12.62
2017-03-16T17:05:14.796Z,12.47
2017-03-16T17:08:09.371Z,12.34
2017-03-16T17:11:03.983Z,12.22
2017-03-16T17:13:58.603Z,12.08
2017-03-16T17:19:47.804Z,11.75
2017-03-16T17:22:42.408Z,11.62
2017-03-16T17:25:37.043Z,11.54
2017-03-16T17:28:31.636Z,11.44
2017-03-16T17:31:26.164Z,11.33
2017-03-16T17:34:20.720Z,11.24
2017-03-16T17:37:15.288Z,11.13
2017-03-16T17:40:09.919Z,11.03
2017-03-16T17:43:04.498Z,10.94
2017-03-16T17:45:59.142Z,10.88
2017-03-16T17:48:53.770Z,10.78
2017-03-16T17:51:48.329Z,10.70
2017-03-16T17:57:37.466Z,10.51
2017-03-16T18:00:32.373Z,10.41
2017-03-16T18:03:26.890Z,10.34
2017-03-16T18:06:21.423Z,10.25
2017-03-16T18:09:16.000Z,10.18
2017-03-16T18:12:10.645Z,10.09
2017-03-16T18:17:59.677Z,9.89
2017-03-16T18:20:54.241Z,9.81
2017-03-16T18:23:48.663Z,9.74
2017-03-16T18:26:43.406Z,9.66
2017-03-16T18:29:38.045Z,9.57
2017-03-16T18:32:32.459Z,9.49
2017-03-16T18:35:27.200Z,9.40
2017-03-16T18:38:21.715Z,9.31
2017-03-16T18:41:16.206Z,9.23
2017-03-16T18:44:10.680Z,9.15
2017-03-16T18:47:05.069Z,9.09
2017-03-16T18:49:59.511Z,9.08
2017-03-16T18:52:53.986Z,9.02
2017-03-16T18:55:48.449Z,8.96
2017-03-16T18:58:42.791Z,8.89
2017-03-16T19:01:37.236Z,8.84
2017-03-16T19:07:26.484Z,8.71
2017-03-16T19:10:20.961Z,8.67
2017-03-16T19:13:15.349Z,8.60
2017-03-16T19:16:09.737Z,8.56
2017-03-16T19:19:04.193Z,8.49
2017-03-16T19:21:58.580Z,8.44
2017-03-16T19:24:52.970Z,8.38
2017-03-16T19:30:41.800Z,8.29
2017-03-16T19:33:36.125Z,8.24
2017-03-16T19:36:30.479Z,8.19
2017-03-16T19:39:24.858Z,8.14
2017-03-16T19:42:19.431Z,8.10
2017-03-16T19:45:14.196Z,8.06
2017-03-16T19:48:08.573Z,8.03
2017-03-16T19:51:03.025Z,8.00
2017-03-16T19:53:57.362Z,7.96
2017-03-16T19:56:52.242Z,7.94
2017-03-16T19:59:46.679Z,8.00
2017-03-16T20:05:35.525Z,8.17
2017-03-16T20:08:29.975Z,8.20
2017-03-16T20:11:24.399Z,8.22
2017-03-16T20:17:13.120Z,8.28
2017-03-16T20:20:07.539Z,8.32
2017-03-16T20:23:01.976Z,8.39
2017-03-16T20:25:56.380Z,8.43
2017-03-16T20:28:50.789Z,8.47
2017-03-16T20:34:39.653Z,8.47
2017-03-16T20:40:28.478Z,8.50
2017-03-16T20:43:22.872Z,8.48
2017-03-16T20:46:17.276Z,8.45
2017-03-16T20:49:11.823Z,8.53
2017-03-16T20:52:06.070Z,8.51
2017-03-16T20:55:00.495Z,8.45
2017-03-16T20:57:54.976Z,8.41
2017-03-16T21:00:49.425Z,8.37
2017-03-16T21:03:43.816Z,8.36
2017-03-16T21:09:32.974Z,8.35
2017-03-16T21:15:22.044Z,8.29
2017-03-16T21:18:16.509Z,8.29
2017-03-16T21:24:05.457Z,8.25
2017-03-16T21:26:59.897Z,8.24
2017-03-16T21:29:54.299Z,8.19
2017-03-16T21:32:48.652Z,8.13
2017-03-16T21:35:43.301Z,8.13
2017-03-16T21:38:37.601Z,8.13
2017-03-16T21:41:32.009Z,8.12
2017-03-16T21:44:26.372Z,8.10
2017-03-16T21:47:21.043Z,8.05
2017-03-16T21:50:15.407Z,7.98
2017-03-16T21:53:09.854Z,7.92
2017-03-16T21:56:04.675Z,7.87
2017-03-16T21:58:59.519Z,7.84
2017-03-16T22:01:54.056Z,7.85
2017-03-16T22:04:48.386Z,7.81
2017-03-16T22:07:42.765Z,7.76
2017-03-16T22:10:37.120Z,7.72
2017-03-16T22:13:31.581Z,7.69
2017-03-16T22:16:25.837Z,7.65
2017-03-16T22:19:20.174Z,7.56
2017-03-16T22:22:14.570Z,7.49
2017-03-16T22:25:08.976Z,7.44
2017-03-16T22:28:03.248Z,7.36
2017-03-16T22:36:46.544Z,7.29
2017-03-16T22:39:41.017Z,7.27
2017-03-16T22:48:23.974Z,7.23
2017-03-16T22:51:19.482Z,7.22
2017-03-16T23:02:56.227Z,7.17
2017-03-16T23:08:44.915Z,7.08
2017-03-16T23:11:39.244Z,7.07
2017-03-16T23:14:33.827Z,7.08
2017-03-16T23:17:28.226Z,7.10
2017-03-16T23:20:22.706Z,7.13
2017-03-16T23:26:11.495Z,7.09
2017-03-16T23:29:05.980Z,7.12
2017-03-16T23:32:00.351Z,7.16
2017-03-16T23:34:54.721Z,7.19
2017-03-16T23:37:49.099Z,7.24
2017-03-16T23:40:43.490Z,7.27
2017-03-16T23:43:37.802Z,7.30
2017-03-16T23:49:26.655Z,7.45
2017-03-16T23:55:15.535Z,7.46
